createdAt,value
2022-11-29T00:01:14.288Z,23.02
2022-11-29T00:03:41.349Z,23.52
2022-11-29T00:06:22.457Z,23.08
2022-11-29T00:08:49.668Z,23.17
2022-11-29T00:11:44.976Z,24.45
2022-11-29T00:14:15.378Z,24.08
2022-11-29T00:16:42.584Z,20.25
2022-11-29T00:19:14.425Z,23.52
2022-11-29T00:21:41.049Z,25.80
2022-11-29T00:24:07.985Z,24.30
2022-11-29T00:26:34.580Z,23.38
2022-11-29T00:29:01.131Z,23.15
2022-11-29T00:31:31.322Z,18.30
2022-11-29T00:33:59.816Z,23.05
2022-11-29T00:36:27.841Z,23.02
2022-11-29T00:38:55.493Z,22.38
2022-11-29T00:41:23.485Z,23.88
2022-11-29T00:43:50.310Z,24.42
2022-11-29T00:46:18.480Z,16.10
2022-11-29T00:48:45.499Z,21.75
2022-11-29T00:51:12.791Z,21.88
2022-11-29T00:53:39.427Z,17.60
2022-11-29T00:56:08.248Z,22.15
2022-11-29T00:58:36.183Z,22.25
2022-11-29T01:01:03.597Z,21.50
2022-11-29T01:03:32.142Z,21.42
2022-11-29T01:06:08.224Z,21.65
2022-11-29T01:13:37.650Z,20.70
2022-11-29T01:16:05.783Z,21.42
2022-11-29T01:18:33.165Z,21.38
2022-11-29T01:21:07.515Z,19.63
2022-11-29T01:23:35.461Z,20.77
2022-11-29T01:26:08.155Z,21.67
2022-11-29T01:28:35.596Z,20.38
2022-11-29T01:31:14.064Z,22.15
2022-11-29T01:33:41.284Z,19.67
2022-11-29T01:36:16.762Z,21.77
2022-11-29T01:38:46.229Z,21.50
2022-11-29T01:41:15.912Z,19.48
2022-11-29T01:44:20.949Z,17.83
2022-11-29T01:46:49.351Z,18.30
2022-11-29T01:49:32.476Z,20.52
2022-11-29T01:52:10.447Z,19.65
2022-11-29T01:54:43.884Z,20.80
2022-11-29T01:57:12.691Z,19.73
2022-11-29T01:59:45.965Z,20.42
2022-11-29T02:02:18.131Z,19.17
2022-11-29T02:04:46.366Z,19.55
2022-11-29T02:07:13.475Z,19.48
2022-11-29T02:09:41.347Z,19.92
2022-11-29T02:12:25.837Z,20.35
2022-11-29T02:14:58.756Z,20.00
2022-11-29T02:17:37.633Z,19.67
2022-11-29T02:20:25.767Z,19.67
2022-11-29T02:23:30.083Z,21.38
2022-11-29T02:26:18.679Z,19.83
2022-11-29T02:28:57.327Z,19.63
2022-11-29T02:31:35.915Z,19.42
2022-11-29T02:34:38.944Z,19.38
2022-11-29T02:37:44.346Z,13.80
2022-11-29T02:40:10.881Z,20.38
2022-11-29T02:42:55.815Z,20.00
2022-11-29T02:46:03.543Z,19.23
2022-11-29T02:48:51.137Z,17.40
2022-11-29T02:51:33.120Z,20.02
2022-11-29T02:54:49.061Z,18.10
2022-11-29T02:57:31.863Z,17.88
2022-11-29T03:00:25.088Z,15.27
2022-11-29T03:02:51.691Z,11.48
2022-11-29T03:05:29.622Z,16.63
2022-11-29T03:08:12.572Z,16.85
2022-11-29T03:10:50.382Z,15.05
2022-11-29T03:13:25.039Z,17.77
2022-11-29T03:15:59.885Z,15.95
2022-11-29T03:18:47.813Z,17.33
2022-11-29T03:21:34.706Z,16.85
2022-11-29T03:24:11.838Z,16.35
2022-11-29T03:26:49.535Z,16.08
2022-11-29T03:29:31.631Z,17.30
2022-11-29T03:32:07.632Z,17.17
2022-11-29T03:35:12.891Z,18.08
2022-11-29T03:38:24.261Z,17.75
2022-11-29T03:41:25.058Z,17.70
2022-11-29T03:44:20.814Z,16.25
2022-11-29T03:47:01.447Z,13.77
2022-11-29T03:50:04.667Z,16.92
2022-11-29T03:52:49.045Z,17.23
2022-11-29T03:55:57.597Z,15.85
2022-11-29T03:58:27.076Z,16.17
2022-11-29T04:01:16.339Z,16.90
2022-11-29T04:04:20.441Z,16.33
2022-11-29T04:06:57.172Z,16.40
2022-11-29T04:09:52.306Z,15.65
2022-11-29T04:12:47.971Z,16.15
2022-11-29T04:15:49.603Z,18.52
2022-11-29T04:19:04.242Z,16.13
2022-11-29T04:21:54.942Z,15.70
2022-11-29T04:24:38.323Z,13.82
2022-11-29T04:27:23.199Z,14.98
2022-11-29T04:30:13.457Z,16.08
2022-11-29T04:32:54.966Z,15.35
2022-11-29T04:36:01.534Z,16.80
2022-11-29T04:38:57.751Z,15.40
2022-11-29T04:42:04.616Z,12.73
2022-11-29T04:44:59.427Z,16.07
2022-11-29T04:47:56.524Z,15.85
2022-11-29T04:53:31.157Z,17.77
2022-11-29T04:56:33.052Z,15.48
2022-11-29T04:59:10.185Z,16.67
2022-11-29T05:01:54.665Z,16.13
2022-11-29T05:04:28.230Z,15.10
2022-11-29T05:07:13.644Z,15.93
2022-11-29T05:09:55.295Z,15.30
2022-11-29T05:12:38.772Z,17.80
2022-11-29T05:15:28.120Z,16.33
2022-11-29T05:18:07.778Z,15.80
2022-11-29T05:20:52.089Z,16.42
2022-11-29T05:23:45.223Z,17.15
2022-11-29T05:26:31.641Z,15.65
2022-11-29T05:29:28.057Z,15.23
2022-11-29T05:32:33.093Z,15.90
2022-11-29T05:35:10.414Z,16.38
2022-11-29T05:37:44.342Z,16.05
2022-11-29T05:40:45.245Z,16.98
2022-11-29T05:43:21.325Z,16.25
2022-11-29T05:46:02.184Z,16.73
2022-11-29T05:48:37.549Z,18.70
2022-11-29T05:51:12.692Z,13.37
2022-11-29T05:54:04.167Z,17.17
2022-11-29T05:56:55.022Z,16.33
2022-11-29T05:59:27.343Z,17.55
2022-11-29T06:02:24.993Z,16.52
2022-11-29T06:05:13.707Z,13.57
2022-11-29T06:07:55.625Z,17.65
2022-11-29T06:10:30.456Z,10.57
2022-11-29T06:13:27.961Z,16.77
2022-11-29T06:16:12.017Z,17.38
2022-11-29T06:19:04.111Z,16.40
2022-11-29T06:21:40.856Z,18.23
2022-11-29T06:24:25.993Z,16.10
2022-11-29T06:27:17.657Z,18.35
2022-11-29T06:30:09.435Z,12.90
2022-11-29T06:33:01.788Z,12.27
2022-11-29T06:35:33.519Z,15.57
2022-11-29T06:38:09.069Z,14.80
2022-11-29T06:40:36.244Z,15.27
2022-11-29T06:43:03.191Z,14.45
2022-11-29T06:45:31.267Z,14.57
2022-11-29T06:48:05.243Z,11.13
2022-11-29T06:50:37.663Z,14.35
2022-11-29T06:53:49.099Z,12.15
2022-11-29T06:56:26.551Z,15.77
2022-11-29T06:59:06.268Z,14.32
2022-11-29T07:02:01.901Z,10.95
2022-11-29T07:05:09.703Z,16.05
2022-11-29T07:07:36.876Z,13.95
2022-11-29T07:10:13.471Z,11.73
2022-11-29T07:12:43.399Z,16.92
2022-11-29T07:15:14.873Z,12.23
2022-11-29T07:18:04.240Z,13.43
2022-11-29T07:20:54.662Z,13.90
2022-11-29T07:23:36.306Z,14.13
2022-11-29T07:26:31.793Z,16.08
2022-11-29T07:29:19.884Z,14.45
2022-11-29T07:32:16.654Z,17.40
2022-11-29T07:35:12.386Z,13.70
2022-11-29T07:37:58.108Z,16.20
2022-11-29T07:41:08.424Z,9.07
2022-11-29T07:43:59.569Z,15.93
2022-11-29T07:46:28.655Z,12.77
2022-11-29T07:48:55.429Z,11.95
2022-11-29T07:51:22.238Z,16.40
2022-11-29T07:53:48.929Z,17.70
2022-11-29T07:56:16.551Z,16.42
2022-11-29T07:58:44.267Z,16.58
2022-11-29T08:01:10.968Z,16.40
2022-11-29T08:03:37.825Z,10.32
2022-11-29T08:06:06.044Z,14.70
2022-11-29T08:08:37.719Z,16.83
2022-11-29T08:11:14.291Z,16.67
2022-11-29T08:13:40.936Z,17.02
2022-11-29T08:16:07.897Z,13.40
2022-11-29T08:18:37.909Z,14.23
2022-11-29T08:21:07.659Z,18.30
2022-11-29T08:23:34.310Z,16.02
2022-11-29T08:26:02.490Z,18.45
2022-11-29T08:28:29.329Z,15.60
2022-11-29T08:31:03.974Z,17.20
2022-11-29T08:33:30.870Z,13.65
2022-11-29T08:36:03.733Z,14.95
2022-11-29T08:38:30.472Z,15.45
2022-11-29T08:41:05.224Z,15.20
2022-11-29T08:43:32.706Z,16.67
2022-11-29T08:45:59.632Z,12.90
2022-11-29T08:48:26.723Z,13.85
2022-11-29T08:50:55.513Z,17.70
2022-11-29T08:53:46.480Z,14.10
2022-11-29T08:59:06.105Z,17.08
2022-11-29T09:01:32.903Z,16.13
2022-11-29T09:03:59.689Z,13.88
2022-11-29T09:06:32.071Z,14.05
2022-11-29T09:08:59.901Z,12.48
2022-11-29T09:11:29.443Z,16.67
2022-11-29T09:13:58.778Z,13.35
2022-11-29T09:16:27.752Z,16.88
2022-11-29T09:18:56.157Z,13.98
2022-11-29T09:21:26.260Z,16.85
2022-11-29T09:23:58.897Z,8.15
2022-11-29T09:26:32.906Z,15.45
2022-11-29T09:29:02.063Z,12.32
2022-11-29T09:31:30.382Z,17.60
2022-11-29T09:33:57.619Z,15.63
2022-11-29T09:36:28.790Z,16.92
2022-11-29T09:38:56.428Z,17.15
2022-11-29T09:41:48.335Z,18.05
2022-11-29T09:44:54.230Z,15.82
2022-11-29T09:47:45.474Z,16.95
2022-11-29T09:50:34.697Z,15.07
2022-11-29T09:53:17.041Z,18.02
2022-11-29T09:55:56.284Z,16.75
2022-11-29T09:58:27.336Z,16.58
2022-11-29T10:01:02.821Z,10.77
2022-11-29T10:03:44.720Z,16.92
2022-11-29T10:06:19.389Z,10.35
2022-11-29T10:08:52.904Z,14.55
2022-11-29T10:11:29.954Z,15.55
2022-11-29T10:14:20.887Z,13.40
2022-11-29T10:16:58.207Z,16.83
2022-11-29T10:19:33.492Z,16.23
2022-11-29T10:22:39.088Z,11.48
2022-11-29T10:25:09.905Z,17.38
2022-11-29T10:27:40.519Z,16.55
2022-11-29T10:30:18.300Z,16.98
2022-11-29T10:32:48.700Z,16.40
2022-11-29T10:35:18.125Z,15.65
2022-11-29T10:38:01.396Z,15.57
2022-11-29T10:40:34.912Z,15.05
2022-11-29T10:43:02.466Z,13.82
2022-11-29T10:45:40.730Z,14.68
2022-11-29T10:48:14.383Z,17.08
2022-11-29T10:50:44.959Z,16.80
2022-11-29T10:53:15.195Z,17.52
2022-11-29T10:56:22.530Z,15.13
2022-11-29T10:59:19.018Z,13.88
2022-11-29T11:01:45.862Z,13.48
2022-11-29T11:04:44.566Z,11.38
2022-11-29T11:07:25.102Z,12.55
2022-11-29T11:09:56.779Z,8.65
2022-11-29T11:12:34.936Z,14.50
2022-11-29T11:15:29.312Z,15.55
2022-11-29T11:18:01.681Z,13.77
2022-11-29T11:20:30.784Z,10.82
2022-11-29T11:23:06.793Z,17.33
2022-11-29T11:25:42.155Z,15.18
2022-11-29T11:28:21.997Z,14.95
2022-11-29T11:30:59.299Z,16.30
2022-11-29T11:33:29.697Z,14.98
2022-11-29T11:36:04.328Z,16.50
2022-11-29T11:38:32.092Z,14.98
2022-11-29T11:41:50.997Z,7.40
2022-11-29T11:44:48.079Z,15.90
2022-11-29T11:47:21.685Z,15.30
2022-11-29T11:49:50.056Z,15.82
2022-11-29T11:52:32.948Z,16.25
2022-11-29T11:55:07.674Z,15.63
2022-11-29T11:57:35.481Z,16.67
2022-11-29T12:00:07.002Z,15.60
2022-11-29T12:02:40.583Z,15.15
2022-11-29T12:05:22.125Z,17.98
2022-11-29T12:08:09.825Z,18.33
2022-11-29T12:10:40.555Z,13.73
2022-11-29T12:13:17.616Z,12.20
2022-11-29T12:15:47.605Z,12.32
2022-11-29T12:18:17.896Z,15.40
2022-11-29T12:20:51.237Z,14.95
2022-11-29T12:23:30.654Z,15.52
2022-11-29T12:26:19.139Z,15.77
2022-11-29T12:28:58.930Z,9.85
2022-11-29T12:31:50.123Z,15.85
2022-11-29T12:34:45.794Z,14.85
2022-11-29T12:37:26.426Z,13.55
2022-11-29T12:40:32.025Z,15.30
2022-11-29T12:43:24.936Z,14.45
2022-11-29T12:46:31.296Z,12.98
2022-11-29T12:49:01.143Z,12.65
2022-11-29T12:52:19.106Z,13.38
2022-11-29T12:55:21.025Z,13.23
2022-11-29T12:58:06.101Z,13.90
2022-11-29T13:00:42.049Z,14.02
2022-11-29T13:03:40.466Z,13.13
2022-11-29T13:06:34.325Z,13.25
2022-11-29T13:09:03.410Z,10.20
2022-11-29T13:11:35.786Z,13.30
2022-11-29T13:14:44.130Z,13.32
2022-11-29T13:17:34.389Z,11.73
2022-11-29T13:20:25.627Z,12.20
2022-11-29T13:23:01.326Z,14.27
2022-11-29T13:25:35.951Z,14.18
2022-11-29T13:28:11.679Z,13.43
2022-11-29T13:30:39.790Z,15.43
2022-11-29T13:33:18.032Z,14.77
2022-11-29T13:35:56.733Z,13.70
2022-11-29T13:38:50.954Z,14.35
2022-11-29T13:41:29.558Z,14.50
2022-11-29T13:44:08.982Z,14.43
2022-11-29T13:46:41.475Z,15.07
2022-11-29T13:49:20.760Z,15.27
2022-11-29T13:51:47.891Z,11.52
2022-11-29T13:54:30.006Z,13.15
2022-11-29T13:57:08.087Z,11.50
2022-11-29T13:59:47.126Z,12.38
2022-11-29T14:02:30.455Z,14.40
2022-11-29T14:04:57.648Z,12.90
2022-11-29T14:07:24.356Z,7.13
2022-11-29T14:10:07.238Z,12.63
2022-11-29T14:12:56.893Z,14.45
2022-11-29T14:15:37.499Z,11.90
2022-11-29T14:18:09.370Z,8.20
2022-11-29T14:20:54.994Z,8.68
2022-11-29T14:23:36.648Z,10.40
2022-11-29T14:26:05.976Z,13.15
2022-11-29T14:28:39.441Z,12.25
2022-11-29T14:31:07.770Z,12.13
2022-11-29T14:34:07.230Z,15.45
2022-11-29T14:36:45.809Z,11.10
2022-11-29T14:39:38.553Z,10.98
2022-11-29T14:42:14.755Z,10.80
2022-11-29T14:47:25.245Z,5.20
2022-11-29T14:49:54.223Z,10.32
2022-11-29T14:52:29.835Z,9.80
2022-11-29T14:55:01.041Z,10.88
2022-11-29T14:57:58.750Z,8.70
2022-11-29T15:00:28.449Z,9.00
2022-11-29T15:03:13.938Z,11.65
2022-11-29T15:05:45.352Z,12.93
2022-11-29T15:08:20.543Z,8.60
2022-11-29T15:10:53.458Z,7.15
2022-11-29T15:13:48.588Z,12.05
2022-11-29T15:16:15.474Z,16.75
2022-11-29T15:19:08.749Z,19.98
2022-11-29T15:21:35.327Z,18.90
2022-11-29T15:24:09.391Z,19.58
2022-11-29T15:26:36.022Z,19.33
2022-11-29T15:29:18.723Z,17.83
2022-11-29T15:31:52.529Z,20.15
2022-11-29T15:34:45.298Z,18.20
2022-11-29T15:37:43.541Z,17.45
2022-11-29T15:40:18.789Z,19.08
2022-11-29T15:43:00.155Z,13.85
2022-11-29T15:45:31.458Z,18.17
2022-11-29T15:48:21.963Z,14.80
2022-11-29T15:51:11.087Z,21.25
2022-11-29T15:53:47.438Z,16.38
2022-11-29T15:56:16.692Z,15.70
2022-11-29T15:58:45.103Z,18.63
2022-11-29T16:01:22.275Z,19.77
2022-11-29T16:03:53.902Z,17.48
2022-11-29T16:06:23.478Z,21.05
2022-11-29T16:08:52.098Z,19.80
2022-11-29T16:11:22.784Z,21.77
2022-11-29T16:14:18.387Z,21.92
2022-11-29T16:16:47.556Z,22.30
2022-11-29T16:19:33.455Z,20.23
2022-11-29T16:22:14.616Z,20.57
2022-11-29T16:25:16.684Z,16.80
2022-11-29T16:27:43.799Z,19.75
2022-11-29T16:30:22.059Z,10.48
2022-11-29T16:33:18.025Z,21.90
2022-11-29T16:35:44.666Z,22.42
2022-11-29T16:38:22.813Z,23.85
2022-11-29T16:41:21.355Z,21.60
2022-11-29T16:43:57.642Z,23.98
2022-11-29T16:46:26.932Z,16.13
2022-11-29T16:48:55.402Z,22.30
2022-11-29T16:51:23.886Z,19.80
2022-11-29T16:54:20.082Z,20.05
2022-11-29T16:56:46.852Z,18.60
2022-11-29T16:59:20.978Z,22.48
2022-11-29T17:01:55.053Z,20.35
2022-11-29T17:04:23.421Z,23.23
2022-11-29T17:06:54.456Z,22.92
2022-11-29T17:09:27.335Z,23.38
2022-11-29T17:11:55.842Z,21.70
2022-11-29T17:14:22.585Z,24.73
2022-11-29T17:16:49.894Z,23.73
2022-11-29T17:19:16.996Z,21.25
2022-11-29T17:21:44.953Z,23.33
2022-11-29T17:24:13.986Z,23.92
2022-11-29T17:26:41.263Z,22.70
2022-11-29T17:29:09.651Z,23.23
2022-11-29T17:31:36.349Z,21.88
2022-11-29T17:34:03.688Z,22.83
2022-11-29T17:36:30.826Z,18.38
2022-11-29T17:38:59.680Z,17.30
2022-11-29T17:41:28.726Z,15.50
2022-11-29T17:43:56.707Z,23.40
2022-11-29T17:46:26.572Z,23.40
2022-11-29T17:48:55.012Z,15.35
2022-11-29T17:51:50.636Z,15.48
2022-11-29T17:54:11.213Z,22.77
2022-11-29T17:56:38.031Z,22.58
2022-11-29T17:59:08.236Z,25.23
2022-11-29T18:01:36.317Z,13.68
2022-11-29T18:04:06.523Z,20.08
2022-11-29T18:06:39.953Z,22.58
2022-11-29T18:09:09.783Z,20.02
2022-11-29T18:11:47.973Z,23.80
2022-11-29T18:14:29.079Z,19.30
2022-11-29T18:16:55.757Z,23.50
2022-11-29T18:19:23.501Z,25.10
2022-11-29T18:21:51.361Z,21.35
2022-11-29T18:24:18.410Z,20.77
2022-11-29T18:26:45.486Z,19.13
2022-11-29T18:29:12.415Z,20.08
2022-11-29T18:31:43.057Z,21.75
2022-11-29T18:34:12.626Z,27.60
2022-11-29T18:36:48.993Z,22.50
2022-11-29T18:39:19.601Z,21.98
2022-11-29T18:41:50.616Z,20.10
2022-11-29T18:44:21.678Z,23.02
2022-11-29T18:46:49.707Z,16.50
2022-11-29T18:49:18.271Z,26.83
2022-11-29T18:51:46.851Z,18.60
2022-11-29T18:54:16.891Z,23.83
2022-11-29T18:56:46.283Z,17.42
2022-11-29T18:59:18.054Z,15.73
2022-11-29T19:01:47.652Z,14.30
2022-11-29T19:04:20.038Z,14.23
2022-11-29T19:06:47.468Z,21.08
2022-11-29T19:09:21.502Z,18.38
2022-11-29T19:11:54.561Z,18.15
2022-11-29T19:14:22.414Z,23.60
2022-11-29T19:16:50.116Z,27.73
2022-11-29T19:21:59.875Z,20.70
2022-11-29T19:24:26.620Z,20.80
2022-11-29T19:26:55.896Z,21.75
2022-11-29T19:29:23.379Z,18.40
2022-11-29T19:31:50.547Z,17.35
2022-11-29T19:34:17.198Z,21.85
2022-11-29T19:36:44.905Z,22.95
2022-11-29T19:39:14.612Z,23.40
2022-11-29T19:41:43.607Z,23.15
2022-11-29T19:44:10.683Z,19.60
2022-11-29T19:46:43.679Z,20.95
2022-11-29T19:49:13.130Z,17.17
2022-11-29T19:51:39.858Z,23.15
2022-11-29T19:54:09.416Z,11.20
2022-11-29T19:56:36.226Z,23.90
2022-11-29T19:59:02.931Z,25.48
2022-11-29T20:01:40.096Z,26.42
2022-11-29T20:04:08.141Z,21.05
2022-11-29T20:06:34.766Z,21.60
2022-11-29T20:09:02.293Z,19.02
2022-11-29T20:11:29.617Z,18.88
2022-11-29T20:14:01.414Z,22.63
2022-11-29T20:16:29.715Z,29.95
2022-11-29T20:18:57.963Z,28.13
2022-11-29T20:21:34.004Z,26.45
2022-11-29T20:24:10.401Z,27.17
2022-11-29T20:26:39.489Z,26.92
2022-11-29T20:29:08.421Z,24.70
2022-11-29T20:31:37.303Z,28.67
2022-11-29T20:34:04.520Z,32.30
2022-11-29T20:36:58.011Z,31.10
2022-11-29T20:39:52.333Z,30.50
2022-11-29T20:42:44.513Z,29.20
2022-11-29T20:45:13.637Z,34.03
2022-11-29T20:59:17.498Z,34.58
2022-11-29T21:01:44.118Z,34.00
2022-11-29T21:04:10.766Z,29.98
2022-11-29T21:06:38.974Z,32.40
2022-11-29T21:09:06.102Z,29.70
2022-11-29T21:11:33.049Z,31.40
2022-11-29T21:14:04.399Z,29.02
2022-11-29T21:16:31.892Z,29.75
2022-11-29T21:19:01.254Z,31.38
2022-11-29T21:21:30.840Z,27.27
2022-11-29T21:24:30.944Z,28.52
2022-11-29T21:26:57.777Z,30.05
2022-11-29T21:29:24.768Z,30.25
2022-11-29T21:31:54.048Z,29.92
2022-11-29T21:34:21.616Z,34.35
2022-11-29T21:36:59.812Z,32.38
2022-11-29T21:39:33.989Z,28.50
2022-11-29T21:42:00.622Z,34.50
2022-11-29T21:44:27.191Z,35.75
2022-11-29T21:46:53.858Z,36.38
2022-11-29T21:49:20.673Z,31.77
2022-11-29T21:51:47.315Z,34.45
2022-11-29T21:54:13.929Z,29.63
2022-11-29T21:56:40.583Z,33.88
2022-11-29T21:59:07.308Z,35.78
2022-11-29T22:01:34.083Z,32.42
2022-11-29T22:04:01.085Z,31.05
2022-11-29T22:06:29.769Z,35.85
2022-11-29T22:08:57.048Z,38.10
2022-11-29T22:11:36.476Z,35.13
2022-11-29T22:14:15.441Z,36.72
2022-11-29T22:16:51.351Z,33.53
2022-11-29T22:19:20.660Z,34.55
2022-11-29T22:21:51.437Z,36.05
2022-11-29T22:24:20.172Z,34.78
2022-11-29T22:26:49.844Z,34.65
2022-11-29T22:29:17.190Z,34.20
2022-11-29T22:31:45.974Z,31.63
2022-11-29T22:34:14.300Z,34.65
2022-11-29T22:36:41.813Z,34.33
2022-11-29T22:39:09.436Z,30.10
2022-11-29T22:41:37.549Z,33.33
2022-11-29T22:44:05.110Z,32.20
2022-11-29T22:46:32.314Z,26.52
2022-11-29T22:49:00.683Z,35.10
2022-11-29T22:51:35.928Z,34.60
2022-11-29T22:54:06.506Z,31.63
2022-11-29T22:56:36.080Z,34.25
2022-11-29T22:59:02.982Z,32.40
2022-11-29T23:01:31.678Z,34.72
2022-11-29T23:04:00.149Z,32.53
2022-11-29T23:06:32.512Z,34.38
2022-11-29T23:09:03.877Z,31.42
2022-11-29T23:11:31.134Z,33.63
2022-11-29T23:13:57.759Z,33.72
2022-11-29T23:16:27.225Z,31.92
2022-11-29T23:18:55.541Z,32.10
2022-11-29T23:21:24.728Z,32.47
2022-11-29T23:23:56.286Z,34.28
2022-11-29T23:26:36.601Z,32.85
2022-11-29T23:29:05.148Z,32.65
2022-11-29T23:31:32.171Z,35.05
2022-11-29T23:33:58.824Z,36.80
2022-11-29T23:36:25.834Z,35.72
2022-11-29T23:38:52.616Z,34.42
2022-11-29T23:41:20.400Z,36.50
2022-11-29T23:43:46.976Z,35.10
2022-11-29T23:46:16.786Z,35.28
2022-11-29T23:48:46.305Z,35.35
2022-11-29T23:51:13.629Z,35.30
2022-11-29T23:53:40.652Z,35.05
2022-11-29T23:56:13.207Z,34.03
2022-11-29T23:58:39.960Z,36.08
